Time;durP1;ratioP1;P1;durP2;ratioP2;P2;SDS_P1;SDS_P2;PMS_P1;PMS_P2;Temp;Humidity;BMP_temperature;BMP_pressure;BME280_temperature;BME280_humidity;BME280_pressure;Samples;Min_cycle;Max_cycle;Signal;HPM_P1;HPM_P2
2022/04/03 00:00:26;;;;;;;7.27;5.13;;;0.00;99.90;;;;;;4972046;28;20049;-86
2022/04/03 00:02:52;;;;;;;7.47;5.20;;;0.10;99.90;;;;;;4972072;28;20047;-86
2022/04/03 00:05:19;;;;;;;7.23;4.87;;;0.10;99.90;;;;;;4971885;28;20043;-85
2022/04/03 00:07:47;;;;;;;7.67;4.87;;;0.20;99.90;;;;;;4973298;28;20101;-85
2022/04/03 00:10:14;;;;;;;8.17;4.80;;;0.30;99.90;;;;;;4972118;28;20136;-85
2022/04/03 00:12:41;;;;;;;7.27;4.70;;;0.50;99.90;;;;;;4973361;28;20139;-85
2022/04/03 00:15:07;;;;;;;6.40;4.63;;;0.30;99.90;;;;;;4976071;28;20420;-85
2022/04/03 00:17:33;;;;;;;6.63;4.67;;;0.30;99.90;;;;;;4976533;28;20051;-84
2022/04/03 00:19:59;;;;;;;10.17;4.50;;;0.40;99.90;;;;;;4971812;28;20045;-84
2022/04/03 00:22:25;;;;;;;9.83;4.80;;;0.80;99.90;;;;;;4955487;28;20047;-84
2022/04/03 00:24:51;;;;;;;9.07;4.60;;;0.40;99.90;;;;;;4971652;28;20039;-83
2022/04/03 00:27:17;;;;;;;8.33;4.67;;;0.50;99.90;;;;;;4971521;28;20054;-84
2022/04/03 00:29:43;;;;;;;6.50;4.63;;;0.50;99.90;;;;;;4971648;28;20046;-84
2022/04/03 00:32:09;;;;;;;8.40;4.90;;;0.60;99.90;;;;;;4972784;28;20074;-84
2022/04/03 00:34:34;;;;;;;8.60;4.80;;;0.60;99.90;;;;;;4971224;28;20097;-84
2022/04/03 00:37:00;;;;;;;8.60;4.67;;;0.60;99.90;;;;;;4972665;28;20390;-84
2022/04/03 00:39:25;;;;;;;8.33;4.90;;;0.90;99.90;;;;;;4972624;28;20042;-84
2022/04/03 00:41:52;;;;;;;7.80;4.30;;;0.60;99.90;;;;;;4971426;28;20046;-83
2022/04/03 00:44:18;;;;;;;8.37;4.60;;;0.80;99.90;;;;;;4987326;28;20093;-85
2022/04/03 00:46:45;;;;;;;6.70;4.07;;;0.50;99.90;;;;;;4971678;28;20054;-84
2022/04/03 00:49:11;;;;;;;9.30;4.57;;;0.50;99.90;;;;;;4971330;28;20061;-86
2022/04/03 00:51:38;;;;;;;7.73;4.13;;;0.50;99.90;;;;;;4970943;28;20489;-85
2022/04/03 00:54:05;;;;;;;7.13;4.27;;;0.40;99.90;;;;;;4970179;28;20061;-85
2022/04/03 00:56:32;;;;;;;8.77;4.53;;;0.40;99.90;;;;;;4971596;28;20042;-85
2022/04/03 00:58:57;;;;;;;7.23;4.40;;;0.40;99.90;;;;;;4976116;28;20034;-86
2022/04/03 01:01:23;;;;;;;8.07;4.17;;;0.30;99.90;;;;;;4976384;28;20035;-85
2022/04/03 01:03:49;;;;;;;7.23;4.73;;;0.80;99.90;;;;;;4974944;28;20114;-86
2022/04/03 01:06:15;;;;;;;6.80;4.03;;;0.30;99.90;;;;;;4975473;28;20090;-86
2022/04/03 01:08:42;;;;;;;9.93;4.30;;;0.20;99.90;;;;;;4975253;28;20520;-86
2022/04/03 01:11:09;;;;;;;7.23;4.03;;;0.20;99.90;;;;;;4975117;28;20053;-85
2022/04/03 01:13:46;;;;;;;6.17;3.83;;;0.20;99.90;;;;;;4976244;28;20039;-85
2022/04/03 01:16:12;;;;;;;7.63;3.67;;;0.20;99.90;;;;;;4975047;28;20050;-85
2022/04/03 01:18:38;;;;;;;5.90;3.87;;;0.10;99.90;;;;;;4975338;28;20054;-86
2022/04/03 01:21:03;;;;;;;7.20;4.00;;;0.10;99.90;;;;;;4976187;28;20046;-86
2022/04/03 01:23:30;;;;;;;5.90;3.70;;;0.10;99.90;;;;;;4975045;28;20481;-86
2022/04/03 01:25:56;;;;;;;6.87;3.60;;;0.10;99.90;;;;;;4975819;28;20054;-87
2022/04/03 01:28:23;;;;;;;6.17;3.83;;;0.30;99.90;;;;;;4975102;28;20054;-86
2022/04/03 01:30:49;;;;;;;7.47;3.97;;;0.10;99.90;;;;;;4974789;28;20054;-86
2022/04/03 01:33:15;;;;;;;7.30;4.07;;;0.00;99.90;;;;;;4975954;28;20440;-86
2022/04/03 01:35:41;;;;;;;6.57;4.10;;;0.00;99.90;;;;;;4975771;28;20127;-86
2022/04/03 01:38:07;;;;;;;7.83;4.10;;;-0.10;99.90;;;;;;4958569;28;20553;-86
2022/04/03 01:40:36;;;;;;;6.80;3.90;;;-0.10;99.90;;;;;;4974585;28;20113;-86
2022/04/03 01:43:06;;;;;;;7.90;4.07;;;-0.10;99.90;;;;;;4974630;28;20058;-86
2022/04/03 01:45:36;;;;;;;6.00;3.90;;;-0.10;99.90;;;;;;4975514;28;20034;-86
2022/04/03 01:48:03;;;;;;;7.53;3.57;;;-0.10;99.90;;;;;;4990634;28;20062;-87
2022/04/03 01:50:28;;;;;;;7.33;3.80;;;0.70;99.90;;;;;;4974513;28;20089;-86
2022/04/03 01:52:54;;;;;;;6.27;3.60;;;-0.20;99.90;;;;;;4974597;28;20074;-86
2022/04/03 01:55:20;;;;;;;4.83;3.50;;;0.20;99.90;;;;;;4978246;28;20174;-88
2022/04/03 01:57:45;;;;;;;5.53;3.80;;;-0.20;99.90;;;;;;4978486;28;20058;-87
2022/04/03 02:00:11;;;;;;;5.77;3.80;;;-0.30;99.90;;;;;;4959972;28;20047;-87
2022/04/03 02:02:38;;;;;;;6.07;3.97;;;-0.30;99.90;;;;;;4974721;28;20428;-87
2022/04/03 02:05:08;;;;;;;5.30;3.80;;;-0.30;99.90;;;;;;4975483;28;20062;-87
2022/04/03 02:07:34;;;;;;;6.17;3.53;;;-0.30;99.90;;;;;;4975215;28;20091;-87
2022/04/03 02:10:01;;;;;;;6.43;3.60;;;-0.30;99.90;;;;;;4973965;28;20050;-87
2022/04/03 02:12:26;;;;;;;4.80;3.60;;;-0.30;99.90;;;;;;4974211;28;20054;-87
2022/04/03 02:14:52;;;;;;;6.57;3.80;;;0.00;99.90;;;;;;4973736;28;20053;-87
2022/04/03 02:17:18;;;;;;;8.90;3.73;;;-0.40;99.90;;;;;;4975355;28;20043;-87
2022/04/03 02:19:44;;;;;;;6.80;3.90;;;-0.30;99.90;;;;;;4974133;28;20050;-87
2022/04/03 02:22:09;;;;;;;6.40;3.47;;;0.20;99.90;;;;;;4973931;28;20378;-87
2022/04/03 02:24:35;;;;;;;6.27;3.97;;;0.40;99.90;;;;;;4973690;28;20519;-87
2022/04/03 02:27:00;;;;;;;6.73;3.40;;;-0.20;99.90;;;;;;4973754;28;20089;-87
2022/04/03 02:29:26;;;;;;;7.87;3.77;;;-0.10;99.90;;;;;;4974986;28;20027;-87
2022/04/03 02:31:51;;;;;;;5.67;3.57;;;-0.10;99.90;;;;;;4973804;28;20047;-87
2022/04/03 02:34:17;;;;;;;5.53;3.20;;;-0.10;99.90;;;;;;4973535;28;20050;-86
2022/04/03 02:36:43;;;;;;;6.73;3.60;;;0.30;99.90;;;;;;4973448;28;20553;-86
2022/04/03 02:39:10;;;;;;;6.30;3.50;;;0.00;99.90;;;;;;4973559;28;20086;-87
2022/04/03 02:41:36;;;;;;;5.33;3.33;;;0.10;99.90;;;;;;4973723;28;20388;-86
2022/04/03 02:44:03;;;;;;;6.00;3.40;;;-0.10;99.90;;;;;;4974479;28;20047;-87
2022/04/03 02:46:29;;;;;;;5.50;3.60;;;0.10;99.90;;;;;;4973556;28;20058;-87
2022/04/03 02:48:55;;;;;;;5.97;3.03;;;0.20;99.90;;;;;;4974648;28;20035;-87
2022/04/03 02:51:21;;;;;;;7.47;3.67;;;0.50;99.90;;;;;;4973329;28;20042;-86
2022/04/03 02:53:46;;;;;;;4.73;3.20;;;0.20;99.90;;;;;;4974168;28;20050;-86
2022/04/03 02:56:12;;;;;;;5.20;3.53;;;0.30;99.90;;;;;;4973212;28;20047;-86
2022/04/03 02:58:37;;;;;;;6.33;3.43;;;0.30;99.90;;;;;;4973001;28;20482;-86
2022/04/03 03:01:03;;;;;;;6.70;3.30;;;0.40;99.90;;;;;;4973188;28;20062;-86
2022/04/03 03:03:29;;;;;;;7.20;3.30;;;0.40;99.90;;;;;;4973212;28;20400;-86
2022/04/03 03:05:54;;;;;;;5.73;3.87;;;0.40;99.90;;;;;;4972686;28;20043;-86
2022/04/03 03:08:20;;;;;;;6.37;3.60;;;0.50;99.90;;;;;;4973235;28;20117;-86
2022/04/03 03:10:45;;;;;;;6.87;4.03;;;0.50;99.90;;;;;;4974064;28;20101;-86
2022/04/03 03:13:12;;;;;;;5.17;3.50;;;0.70;99.90;;;;;;4974429;28;20035;-87
2022/04/03 03:15:38;;;;;;;5.17;3.40;;;0.50;99.90;;;;;;4973049;28;20057;-85
2022/04/03 03:18:04;;;;;;;3.73;2.77;;;0.50;99.90;;;;;;4972899;28;20047;-85
2022/04/03 03:20:29;;;;;;;3.87;2.47;;;0.70;99.90;;;;;;4971890;28;20049;-84
2022/04/03 03:22:55;;;;;;;6.40;2.40;;;0.80;99.90;;;;;;4972686;28;20493;-85
2022/04/03 03:25:20;;;;;;;6.40;2.50;;;1.20;99.90;;;;;;4973838;28;20477;-85
2022/04/03 03:27:46;;;;;;;5.67;2.20;;;1.00;99.90;;;;;;4972348;28;20489;-86
2022/04/03 03:30:12;;;;;;;5.27;2.20;;;1.00;99.90;;;;;;4972685;28;20453;-86
2022/04/03 03:32:38;;;;;;;3.80;2.17;;;1.00;99.90;;;;;;4973853;28;20124;-86
2022/04/03 03:35:04;;;;;;;4.47;2.37;;;1.40;99.90;;;;;;4973260;28;20500;-85
2022/04/03 03:37:30;;;;;;;3.63;2.33;;;1.00;99.90;;;;;;4978193;28;20046;-85
2022/04/03 03:39:56;;;;;;;6.17;2.30;;;1.00;99.90;;;;;;4977758;28;20118;-84
2022/04/03 03:42:22;;;;;;;3.67;2.03;;;1.00;99.90;;;;;;4973158;28;20074;-83
2022/04/03 03:44:48;;;;;;;3.90;2.20;;;1.00;99.90;;;;;;4973529;28;20408;-84
2022/04/03 03:47:13;;;;;;;5.40;2.40;;;1.00;99.90;;;;;;4973506;28;20097;-83
2022/04/03 03:49:39;;;;;;;6.03;2.60;;;1.40;99.90;;;;;;4971993;28;20101;-83
2022/04/03 03:52:05;;;;;;;3.97;2.50;;;0.90;99.90;;;;;;4972097;28;20055;-83
2022/04/03 03:54:31;;;;;;;3.73;2.60;;;0.90;99.90;;;;;;4971635;28;20043;-83
2022/04/03 03:56:57;;;;;;;4.53;2.33;;;0.80;99.90;;;;;;4972015;28;20042;-83
2022/04/03 03:59:23;;;;;;;7.90;2.70;;;0.80;99.90;;;;;;4971939;28;20050;-82
2022/04/03 04:01:48;;;;;;;3.87;2.50;;;0.80;99.90;;;;;;4971868;28;20054;-83
2022/04/03 04:04:14;;;;;;;4.63;2.60;;;0.70;99.90;;;;;;4972945;28;20085;-82
2022/04/03 04:06:41;;;;;;;4.00;2.43;;;1.10;99.90;;;;;;4973053;28;20043;-82
2022/04/03 04:09:06;;;;;;;4.43;2.30;;;0.60;99.90;;;;;;4971612;28;20110;-82
2022/04/03 04:11:32;;;;;;;4.00;3.20;;;1.00;99.90;;;;;;4973000;28;20091;-82
2022/04/03 04:13:58;;;;;;;2.93;2.50;;;0.50;99.90;;;;;;4971740;28;20042;-83
2022/04/03 04:16:23;;;;;;;3.60;2.27;;;0.60;99.90;;;;;;4971599;28;20047;-83
2022/04/03 04:18:49;;;;;;;3.80;2.77;;;0.50;99.90;;;;;;4971530;28;20050;-83
2022/04/03 04:21:16;;;;;;;4.57;2.77;;;0.40;99.90;;;;;;4973015;28;20488;-83
2022/04/03 04:23:42;;;;;;;5.53;2.73;;;0.40;99.90;;;;;;4971804;28;20046;-81
2022/04/03 04:26:08;;;;;;;4.73;2.70;;;0.30;99.90;;;;;;4972911;28;20061;-82
2022/04/03 04:28:34;;;;;;;4.43;2.70;;;0.30;99.90;;;;;;4971463;28;20047;-83
2022/04/03 04:31:00;;;;;;;4.37;2.87;;;0.30;99.90;;;;;;4971490;28;20125;-83
2022/04/03 04:33:25;;;;;;;4.53;3.40;;;0.30;99.90;;;;;;4971376;28;20121;-82
2022/04/03 04:35:51;;;;;;;4.53;3.00;;;0.20;99.90;;;;;;4971290;28;20081;-82
2022/04/03 04:38:17;;;;;;;3.80;2.60;;;0.20;99.90;;;;;;4971277;28;20481;-82
2022/04/03 04:40:44;;;;;;;5.00;2.50;;;0.60;99.90;;;;;;4971605;28;20137;-82
2022/04/03 04:43:11;;;;;;;5.03;3.00;;;0.30;99.90;;;;;;4971618;28;20047;-82
2022/04/03 04:45:36;;;;;;;4.60;2.63;;;0.20;99.90;;;;;;4971027;28;20501;-82
2022/04/03 04:48:02;;;;;;;4.23;2.57;;;0.20;99.90;;;;;;4972476;28;20062;-83
2022/04/03 04:50:30;;;;;;;4.60;2.60;;;0.10;99.90;;;;;;4971355;28;20046;-82
2022/04/03 04:52:57;;;;;;;3.63;2.57;;;0.10;99.90;;;;;;4972577;28;20042;-82
2022/04/03 04:55:24;;;;;;;7.13;2.70;;;0.10;99.90;;;;;;4972305;28;20565;-82
2022/04/03 04:57:52;;;;;;;3.53;2.60;;;0.00;99.90;;;;;;4971202;28;20050;-82
2022/04/03 05:00:20;;;;;;;5.67;2.80;;;0.00;99.90;;;;;;4987177;28;20043;-83
2022/04/03 05:02:46;;;;;;;6.97;3.07;;;0.00;99.90;;;;;;4972195;28;20070;-82
2022/04/03 05:05:19;;;;;;;3.37;2.50;;;-0.10;99.90;;;;;;4987303;28;20050;-82
2022/04/03 05:07:46;;;;;;;3.88;2.90;;;-0.10;99.90;;;;;;4971172;28;20508;-83
2022/04/03 05:10:14;;;;;;;5.50;3.40;;;-0.10;99.90;;;;;;4971105;28;20055;-83
2022/04/03 05:12:40;;;;;;;4.97;2.90;;;-0.20;99.90;;;;;;4971103;28;20181;-83
2022/04/03 05:15:11;;;;;;;6.03;3.30;;;-0.20;99.90;;;;;;4972201;28;20048;-84
2022/04/03 05:17:38;;;;;;;7.13;2.67;;;-0.30;99.90;;;;;;4973041;28;20046;-84
2022/04/03 05:20:04;;;;;;;5.43;2.93;;;-0.30;99.90;;;;;;4973681;28;20341;-84
2022/04/03 05:22:30;;;;;;;4.60;2.80;;;-0.30;99.90;;;;;;4973364;28;20509;-83
2022/04/03 05:24:56;;;;;;;4.47;2.80;;;-0.30;99.90;;;;;;4971043;28;20042;-84
2022/04/03 05:27:22;;;;;;;4.80;3.00;;;-0.20;99.90;;;;;;4972429;28;20105;-84
2022/04/03 05:29:47;;;;;;;4.83;2.80;;;-0.20;99.90;;;;;;4971081;28;20050;-84
2022/04/03 05:32:13;;;;;;;2.90;2.50;;;-0.20;99.90;;;;;;4969420;28;20075;-84
2022/04/03 05:34:39;;;;;;;6.43;2.93;;;-0.20;99.90;;;;;;4971008;28;20073;-83
2022/04/03 05:37:06;;;;;;;4.30;2.60;;;-0.20;99.90;;;;;;4971736;28;20047;-84
2022/04/03 05:39:31;;;;;;;5.13;3.40;;;-0.10;99.90;;;;;;4972219;28;20470;-84
2022/04/03 05:41:57;;;;;;;6.23;2.90;;;-0.10;99.90;;;;;;4970887;28;20114;-83
2022/04/03 05:44:23;;;;;;;3.67;2.80;;;0.30;99.90;;;;;;4974196;28;20046;-84
2022/04/03 05:46:49;;;;;;;4.67;2.87;;;0.00;99.90;;;;;;4974434;28;20042;-83
2022/04/03 05:49:16;;;;;;;4.90;3.00;;;0.00;99.90;;;;;;4973825;28;20540;-83
2022/04/03 05:51:42;;;;;;;5.17;2.50;;;0.00;99.90;;;;;;4988888;28;20046;-84
2022/04/03 05:54:08;;;;;;;5.37;2.67;;;0.00;99.90;;;;;;4954105;28;20055;-84
2022/04/03 05:56:33;;;;;;;4.53;3.17;;;0.00;99.90;;;;;;4962403;28;20389;-84
2022/04/03 05:58:59;;;;;;;5.77;2.70;;;0.00;99.90;;;;;;4974879;28;20034;-85
2022/04/03 06:01:24;;;;;;;4.23;3.00;;;0.10;99.90;;;;;;4973580;28;20042;-84
2022/04/03 06:03:50;;;;;;;6.40;2.90;;;0.60;99.90;;;;;;4960813;28;20070;-85
2022/04/03 06:06:16;;;;;;;6.53;3.10;;;0.30;99.90;;;;;;4954743;29;20046;-84
2022/04/03 06:08:43;;;;;;;7.13;2.83;;;0.30;99.90;;;;;;4954584;29;20049;-83
2022/04/03 06:11:08;;;;;;;5.73;2.57;;;0.40;99.90;;;;;;4955972;28;20047;-84
2022/04/03 06:13:34;;;;;;;4.93;2.93;;;0.50;99.90;;;;;;4938693;28;20039;-83
2022/04/03 06:16:00;;;;;;;4.80;2.33;;;0.50;99.90;;;;;;4953464;29;20055;-82
2022/04/03 06:18:26;;;;;;;5.20;2.60;;;0.70;99.90;;;;;;4953349;29;20122;-82
2022/04/03 06:20:51;;;;;;;5.63;2.70;;;0.80;99.90;;;;;;4955853;28;20561;-82
2022/04/03 06:23:22;;;;;;;5.70;2.70;;;1.00;99.90;;;;;;4955787;28;20043;-82
2022/04/03 06:25:52;;;;;;;3.50;2.40;;;1.10;99.90;;;;;;4937615;29;20113;-81
2022/04/03 06:28:17;;;;;;;6.13;2.40;;;1.20;99.90;;;;;;4937649;28;20054;-81
2022/04/03 06:30:43;;;;;;;3.23;2.40;;;1.30;99.90;;;;;;4955263;29;20051;-81
2022/04/03 06:33:09;;;;;;;4.93;2.30;;;1.40;99.90;;;;;;4957874;28;20050;-81
2022/04/03 06:35:34;;;;;;;7.53;2.40;;;1.50;99.90;;;;;;4956282;29;20047;-82
2022/04/03 06:38:00;;;;;;;3.73;2.03;;;1.60;99.90;;;;;;4954031;29;20106;-82
2022/04/03 06:40:26;;;;;;;6.90;2.13;;;1.80;99.90;;;;;;4954786;28;20078;-82
2022/04/03 06:42:52;;;;;;;3.77;1.73;;;1.90;99.90;;;;;;4952791;29;20054;-83
2022/04/03 06:45:17;;;;;;;5.00;1.80;;;2.10;99.90;;;;;;4955547;28;20031;-84
2022/04/03 06:47:43;;;;;;;4.83;1.77;;;2.10;99.90;;;;;;4954036;29;20311;-85
2022/04/03 06:50:10;;;;;;;6.33;2.00;;;2.60;99.90;;;;;;4953654;28;20130;-84
2022/04/03 06:52:36;;;;;;;3.77;1.90;;;2.30;99.90;;;;;;4953919;28;20054;-85
2022/04/03 06:55:03;;;;;;;5.87;1.97;;;2.50;99.90;;;;;;4953032;28;20047;-86
2022/04/03 06:57:29;;;;;;;5.30;1.70;;;2.60;99.90;;;;;;4953174;29;20334;-85
2022/04/03 06:59:54;;;;;;;4.47;1.53;;;3.00;99.90;;;;;;4957349;28;20039;-84
2022/04/03 07:02:20;;;;;;;6.90;2.00;;;3.00;99.90;;;;;;4958133;28;20061;-85
2022/04/03 07:04:45;;;;;;;4.47;1.90;;;3.50;99.90;;;;;;4954064;28;20118;-84
2022/04/03 07:07:11;;;;;;;4.23;1.50;;;3.30;99.90;;;;;;4953639;28;20098;-85
2022/04/03 07:09:40;;;;;;;3.90;1.80;;;3.80;99.90;;;;;;4953588;28;20062;-84
2022/04/03 07:12:06;;;;;;;3.95;1.60;;;3.50;99.90;;;;;;4937500;29;20051;-85
2022/04/03 07:14:32;;;;;;;3.23;1.53;;;3.50;99.90;;;;;;4953387;29;20099;-86
2022/04/03 07:16:57;;;;;;;6.53;1.73;;;3.50;99.90;;;;;;4954922;29;20047;-85
2022/04/03 07:19:23;;;;;;;3.13;1.77;;;3.50;99.90;;;;;;4937880;29;20057;-85
2022/04/03 07:21:50;;;;;;;3.08;1.67;;;3.40;99.90;;;;;;4953338;28;20047;-85
2022/04/03 07:24:17;;;;;;;5.35;1.80;;;3.80;99.90;;;;;;4971234;28;20050;-85
2022/04/03 07:26:42;;;;;;;6.93;1.90;;;3.40;99.90;;;;;;4973480;28;20042;-86
2022/04/03 07:29:08;;;;;;;4.05;1.63;;;3.40;99.90;;;;;;4973633;28;20046;-86
2022/04/03 07:31:34;;;;;;;4.82;1.70;;;3.60;99.90;;;;;;4972715;28;20048;-86
2022/04/03 07:33:59;;;;;;;4.57;1.60;;;3.80;99.90;;;;;;4973911;28;20477;-87
2022/04/03 07:36:25;;;;;;;3.22;1.60;;;4.10;99.90;;;;;;4974725;28;20038;-87
2022/04/03 07:38:52;;;;;;;4.07;1.58;;;4.30;99.90;;;;;;4972366;28;20038;-87
2022/04/03 07:41:18;;;;;;;4.15;1.83;;;4.30;99.90;;;;;;4972576;28;20497;-86
2022/04/03 07:43:44;;;;;;;5.82;1.80;;;4.20;99.90;;;;;;4972243;28;20081;-87
2022/04/03 07:46:15;;;;;;;5.30;1.80;;;4.30;99.90;;;;;;4973691;28;20070;-87
2022/04/03 07:48:40;;;;;;;5.22;1.75;;;4.50;99.90;;;;;;4972679;28;20050;-88
2022/04/03 07:51:06;;;;;;;3.20;1.63;;;4.70;99.90;;;;;;4972110;28;20123;-88
2022/04/03 07:53:32;;;;;;;4.63;1.40;;;4.80;99.90;;;;;;4971911;28;20050;-88
2022/04/03 07:55:57;;;;;;;4.13;1.80;;;5.00;99.90;;;;;;4972185;28;20109;-89
2022/04/03 07:58:23;;;;;;;4.03;1.45;;;5.10;99.90;;;;;;4972043;28;20050;-88
2022/04/03 08:04:18;;;;;;;2.65;1.35;;;5.30;99.90;;;;;;4986588;28;20051;-88
2022/04/03 08:06:44;;;;;;;5.03;1.60;;;5.40;99.90;;;;;;4972037;28;20041;-88
2022/04/03 08:09:12;;;;;;;5.40;1.60;;;6.20;99.90;;;;;;4972998;28;20452;-88
2022/04/03 08:11:37;;;;;;;6.72;2.05;;;6.20;99.90;;;;;;4974480;28;20050;-88
2022/04/03 08:14:03;;;;;;;3.47;1.38;;;5.60;99.90;;;;;;4972132;28;20042;-88
2022/04/03 08:16:28;;;;;;;4.63;1.35;;;5.70;99.90;;;;;;4971993;28;20117;-88
2022/04/03 08:18:54;;;;;;;6.07;1.40;;;5.80;99.90;;;;;;4973846;28;20062;-88
2022/04/03 08:21:20;;;;;;;5.05;1.20;;;5.80;99.90;;;;;;4973696;28;20049;-88
2022/04/03 08:23:45;;;;;;;5.30;1.25;;;6.10;99.90;;;;;;4956586;28;20078;-88
2022/04/03 08:26:12;;;;;;;3.25;1.30;;;6.10;99.90;;;;;;4954657;28;20035;-88
2022/04/03 08:28:38;;;;;;;2.42;1.20;;;6.20;99.90;;;;;;4969719;28;20070;-88
2022/04/03 08:31:03;;;;;;;2.35;1.20;;;6.40;99.90;;;;;;4972954;28;20042;-88
2022/04/03 08:33:29;;;;;;;5.03;1.33;;;7.20;99.90;;;;;;4971365;28;20066;-88
2022/04/03 08:35:55;;;;;;;7.00;1.48;;;7.00;99.90;;;;;;4953835;28;20032;-88
2022/04/03 08:38:21;;;;;;;5.43;1.35;;;7.10;99.90;;;;;;4952332;28;20053;-88
2022/04/03 08:40:46;;;;;;;3.67;1.17;;;7.30;99.90;;;;;;4953979;28;20038;-87
2022/04/03 08:43:12;;;;;;;2.70;1.00;;;7.60;99.90;;;;;;4952595;29;20071;-87
2022/04/03 08:45:38;;;;;;;3.08;1.15;;;7.00;99.90;;;;;;4952125;29;20047;-87
2022/04/03 08:48:07;;;;;;;4.30;1.42;;;6.90;99.90;;;;;;4954024;28;20047;-87
2022/04/03 08:50:38;;;;;;;3.15;1.00;;;6.80;99.90;;;;;;4952578;28;20137;-87
2022/04/03 08:53:06;;;;;;;3.47;1.10;;;6.50;99.90;;;;;;4954509;28;20051;-87
2022/04/03 08:55:32;;;;;;;3.63;1.10;;;6.30;99.90;;;;;;4953594;28;20445;-87
2022/04/03 08:57:57;;;;;;;5.60;1.30;;;6.20;99.90;;;;;;4952011;28;20051;-86
2022/04/03 09:00:24;;;;;;;3.92;1.08;;;6.30;99.90;;;;;;4953504;28;20521;-87
2022/04/03 09:02:50;;;;;;;5.40;1.75;;;6.30;99.90;;;;;;4953873;28;20042;-87
2022/04/03 09:05:16;;;;;;;2.30;1.10;;;6.20;99.90;;;;;;4952579;28;20047;-87
2022/04/03 09:07:42;;;;;;;6.30;0.90;;;6.60;99.90;;;;;;4955399;28;20437;-87
2022/04/03 09:10:09;;;;;;;3.40;0.70;;;6.20;99.90;;;;;;4951606;28;20058;-87
2022/04/03 09:12:49;;;;;;;4.35;1.20;;;6.10;99.90;;;;;;4936017;29;20078;-87
2022/04/03 09:15:20;;;;;;;3.88;0.98;;;6.00;99.90;;;;;;4951925;29;20051;-87
2022/04/03 09:17:49;;;;;;;3.10;0.90;;;6.40;99.90;;;;;;4936283;29;20082;-86
2022/04/03 09:20:20;;;;;;;2.25;0.80;;;6.80;99.90;;;;;;4956934;28;20051;-87
2022/04/03 09:22:50;;;;;;;6.57;1.30;;;7.20;99.90;;;;;;4955523;28;20043;-86
2022/04/03 09:25:22;;;;;;;2.30;0.70;;;7.10;99.90;;;;;;4955652;28;20063;-85
2022/04/03 09:27:53;;;;;;;5.68;1.17;;;7.00;99.90;;;;;;4956792;28;20449;-87
2022/04/03 09:30:34;;;;;;;4.82;1.00;;;7.00;99.90;;;;;;4954437;28;20528;-86
2022/04/03 09:33:01;;;;;;;5.85;1.00;;;6.80;99.90;;;;;;4964586;28;20047;-86
2022/04/03 09:35:29;;;;;;;4.10;1.60;;;6.70;99.90;;;;;;4975378;28;20043;-86
2022/04/03 09:38:07;;;;;;;3.20;1.10;;;6.50;99.90;;;;;;4975385;28;20069;-86
2022/04/03 09:40:34;;;;;;;2.63;1.00;;;6.80;99.90;;;;;;4974107;28;20104;-86
2022/04/03 09:43:16;;;;;;;2.70;0.90;;;7.20;99.90;;;;;;4975743;28;20078;-86
2022/04/03 09:45:49;;;;;;;3.55;1.05;;;7.60;99.90;;;;;;4974354;28;20086;-86
2022/04/03 09:48:28;;;;;;;3.13;0.70;;;7.90;99.90;;;;;;4975496;28;20374;-86
2022/04/03 09:51:03;;;;;;;3.33;0.80;;;8.00;99.90;;;;;;4974467;28;20057;-86
2022/04/03 09:53:39;;;;;;;4.03;1.10;;;8.10;99.90;;;;;;4975561;28;20046;-85
2022/04/03 09:56:05;;;;;;;1.65;0.88;;;8.30;99.90;;;;;;4975390;28;20050;-85
2022/04/03 09:58:31;;;;;;;3.47;0.80;;;8.30;99.90;;;;;;4975152;28;20055;-85
2022/04/03 10:00:56;;;;;;;2.92;0.80;;;8.00;99.90;;;;;;4975607;28;20126;-86
2022/04/03 10:03:23;;;;;;;2.00;0.70;;;7.80;99.90;;;;;;4973858;28;20050;-86
2022/04/03 10:05:51;;;;;;;3.00;1.00;;;7.90;99.90;;;;;;4973835;28;20058;-85
2022/04/03 10:08:18;;;;;;;4.10;0.98;;;8.10;99.90;;;;;;4974439;28;20054;-85
2022/04/03 10:10:45;;;;;;;5.63;0.70;;;8.40;99.90;;;;;;4975762;28;20058;-86
2022/04/03 10:13:10;;;;;;;1.83;0.70;;;8.50;99.90;;;;;;4973900;28;20074;-86
2022/04/03 10:15:36;;;;;;;2.53;0.80;;;8.20;99.90;;;;;;4973994;28;20136;-86
2022/04/03 10:18:02;;;;;;;4.80;0.80;;;7.80;99.90;;;;;;4974017;28;20046;-86
2022/04/03 10:20:28;;;;;;;2.58;1.02;;;7.60;99.90;;;;;;4975479;28;20035;-87
2022/04/03 10:23:03;;;;;;;2.08;0.60;;;7.90;99.90;;;;;;4973805;28;20038;-86
2022/04/03 10:25:31;;;;;;;3.72;0.80;;;8.30;99.90;;;;;;4973754;28;20058;-87
2022/04/03 10:28:01;;;;;;;2.78;1.00;;;8.20;99.90;;;;;;4967690;28;20039;-86
2022/04/03 10:30:38;;;;;;;2.78;1.00;;;8.00;99.90;;;;;;4956324;28;20049;-86
2022/04/03 10:33:04;;;;;;;4.50;1.33;;;8.20;99.90;;;;;;4955505;28;20065;-87
2022/04/03 10:35:30;;;;;;;2.58;0.90;;;8.60;99.90;;;;;;4953703;28;20514;-87
2022/04/03 10:38:04;;;;;;;3.25;0.60;;;8.50;99.90;;;;;;4953985;28;20063;-87
2022/04/03 10:40:35;;;;;;;3.05;0.82;;;8.50;99.90;;;;;;4954391;29;20046;-87
2022/04/03 10:43:06;;;;;;;2.78;0.70;;;8.70;99.90;;;;;;4954255;29;20035;-87
2022/04/03 10:45:46;;;;;;;2.80;0.85;;;8.90;99.90;;;;;;4955474;28;20082;-86
2022/04/03 10:48:21;;;;;;;3.63;1.02;;;9.20;99.90;;;;;;4954148;29;20047;-86
2022/04/03 10:51:06;;;;;;;5.18;1.00;;;8.80;99.90;;;;;;4953946;28;20105;-86
2022/04/03 10:53:47;;;;;;;2.05;0.80;;;8.50;99.90;;;;;;4952903;28;20047;-87
2022/04/03 10:56:24;;;;;;;3.40;0.93;;;8.00;99.90;;;;;;4954025;28;20053;-85
2022/04/03 10:58:53;;;;;;;4.50;0.80;;;7.50;99.90;;;;;;4956334;28;20506;-86
2022/04/03 11:01:33;;;;;;;3.15;1.00;;;7.40;99.90;;;;;;4953538;28;20656;-85
2022/04/03 11:04:21;;;;;;;1.58;0.60;;;7.20;99.90;;;;;;4952781;28;20069;-86
2022/04/03 11:06:50;;;;;;;1.67;0.70;;;7.10;99.90;;;;;;4955213;28;20047;-85
2022/04/03 11:09:24;;;;;;;3.67;0.80;;;7.20;99.90;;;;;;4953505;28;20528;-86
2022/04/03 11:11:57;;;;;;;2.08;0.70;;;7.30;99.90;;;;;;4953642;29;20084;-85
2022/04/03 11:14:49;;;;;;;2.92;0.70;;;7.50;99.90;;;;;;4954628;28;20043;-87
2022/04/03 11:17:15;;;;;;;1.38;0.73;;;7.90;99.90;;;;;;4954752;28;20081;-86
2022/04/03 11:19:44;;;;;;;1.67;0.70;;;7.90;99.90;;;;;;4953418;28;20114;-87
2022/04/03 11:22:15;;;;;;;1.92;0.60;;;8.00;99.90;;;;;;4953470;28;20058;-86
2022/04/03 11:24:40;;;;;;;0.73;0.52;;;7.90;99.90;;;;;;4953475;29;20084;-87
2022/04/03 11:27:07;;;;;;;1.63;0.90;;;7.80;99.90;;;;;;4953768;28;20580;-86
2022/04/03 11:29:33;;;;;;;2.70;0.80;;;7.80;99.90;;;;;;4954815;28;20046;-86
2022/04/03 11:32:03;;;;;;;1.45;0.70;;;7.70;99.90;;;;;;4953441;28;20047;-87
2022/04/03 11:34:30;;;;;;;2.30;0.68;;;7.60;99.90;;;;;;4954449;28;20043;-87
2022/04/03 11:36:58;;;;;;;1.98;0.80;;;7.50;99.90;;;;;;4954579;28;20402;-86
2022/04/03 11:39:31;;;;;;;2.80;0.70;;;7.50;99.90;;;;;;4953213;28;20755;-86
2022/04/03 11:41:58;;;;;;;1.85;0.93;;;7.50;99.90;;;;;;4952558;28;20501;-86
2022/04/03 11:44:24;;;;;;;1.98;0.82;;;7.50;99.90;;;;;;4952702;28;20078;-87
2022/04/03 11:46:50;;;;;;;1.48;0.40;;;7.50;99.90;;;;;;4952832;28;20079;-86
2022/04/03 11:49:17;;;;;;;1.00;0.30;;;7.20;99.90;;;;;;4954114;28;20098;-84
2022/04/03 11:51:45;;;;;;;1.13;0.38;;;6.60;99.90;;;;;;4952918;28;20101;-84
2022/04/03 11:54:13;;;;;;;0.95;0.28;;;5.90;99.90;;;;;;4955458;28;20050;-86
2022/04/03 11:56:39;;;;;;;1.77;0.30;;;5.40;99.90;;;;;;4953349;28;20118;-85
2022/04/03 11:59:05;;;;;;;0.63;0.30;;;5.20;99.90;;;;;;4952807;28;20484;-85
2022/04/03 12:01:37;;;;;;;0.65;0.40;;;5.10;99.90;;;;;;4980944;28;20074;-85
2022/04/03 12:04:13;;;;;;;1.08;0.32;;;5.10;99.90;;;;;;4972034;28;20043;-86
2022/04/03 12:06:40;;;;;;;1.27;0.50;;;5.20;99.90;;;;;;4955525;28;20042;-86
2022/04/03 12:09:10;;;;;;;0.52;0.30;;;5.20;99.90;;;;;;4972903;28;20038;-85
2022/04/03 12:11:38;;;;;;;1.98;1.00;;;5.30;99.90;;;;;;4973159;28;20064;-86
2022/04/03 12:14:06;;;;;;;2.85;1.20;;;5.40;99.90;;;;;;4972252;28;20097;-87
2022/04/03 12:16:34;;;;;;;1.38;0.60;;;5.50;99.90;;;;;;4972610;28;20047;-85
2022/04/03 12:19:02;;;;;;;2.58;0.88;;;5.60;99.90;;;;;;4971711;28;20047;-86
2022/04/03 12:21:47;;;;;;;1.25;0.60;;;5.70;99.90;;;;;;4971846;28;20456;-86
2022/04/03 12:24:17;;;;;;;1.30;0.57;;;5.90;99.90;;;;;;4971667;28;20074;-86
2022/04/03 12:26:56;;;;;;;1.23;0.65;;;6.10;99.90;;;;;;4972782;28;20039;-87
2022/04/03 12:29:23;;;;;;;1.38;0.50;;;6.30;99.90;;;;;;4971434;28;20066;-87
2022/04/03 12:32:00;;;;;;;1.63;0.60;;;6.40;99.90;;;;;;4972924;28;20070;-86
2022/04/03 12:34:28;;;;;;;0.85;0.50;;;6.60;99.90;;;;;;4972607;28;20371;-86
2022/04/03 12:36:56;;;;;;;1.27;0.70;;;7.20;99.90;;;;;;4972468;28;20047;-86
2022/04/03 12:39:46;;;;;;;3.15;0.63;;;7.80;99.90;;;;;;4971489;28;20042;-87
2022/04/03 12:42:15;;;;;;;4.00;0.80;;;8.50;99.90;;;;;;4971429;28;20049;-86
2022/04/03 12:44:56;;;;;;;4.55;1.00;;;8.90;99.90;;;;;;4971083;28;20046;-86
2022/04/03 12:47:28;;;;;;;2.53;1.00;;;8.70;99.90;;;;;;4972377;28;20050;-87
2022/04/03 12:50:05;;;;;;;5.55;1.00;;;8.50;99.90;;;;;;4972642;28;20480;-86
2022/04/03 12:52:40;;;;;;;3.85;0.82;;;8.20;99.90;;;;;;4972687;28;20038;-87
2022/04/03 12:55:07;;;;;;;3.22;1.17;;;8.10;99.90;;;;;;4976310;28;20042;-86
2022/04/03 13:00:18;;;;;;;4.10;1.13;;;7.70;99.90;;;;;;4973635;28;20429;-86
2022/04/03 13:02:45;;;;;;;5.32;1.15;;;7.70;99.90;;;;;;4973620;28;20126;-86